sensor_id;sensor_type;location;lat;lon;timestamp;temperature;humidity
51739;DHT22;37815;52.692;6.226;2023-01-25T00:04:19;5.90;99.90
51739;DHT22;37815;52.692;6.226;2023-01-25T00:09:38;5.90;99.90
51739;DHT22;37815;52.692;6.226;2023-01-25T00:14:57;5.90;99.90
51739;DHT22;37815;52.692;6.226;2023-01-25T00:20:16;5.80;99.90
51739;DHT22;37815;52.692;6.226;2023-01-25T00:25:35;5.80;99.90
51739;DHT22;37815;52.692;6.226;2023-01-25T00:30:59;5.80;99.90
51739;DHT22;37815;52.692;6.226;2023-01-25T00:36:40;5.80;99.90
51739;DHT22;37815;52.692;6.226;2023-01-25T00:42:00;5.80;99.90
51739;DHT22;37815;52.692;6.226;2023-01-25T00:47:19;5.80;99.90
51739;DHT22;37815;52.692;6.226;2023-01-25T00:52:38;5.80;99.90
51739;DHT22;37815;52.692;6.226;2023-01-25T00:57:58;5.80;99.90
51739;DHT22;37815;52.692;6.226;2023-01-25T01:03:17;5.80;99.90
51739;DHT22;37815;52.692;6.226;2023-01-25T01:08:39;5.80;99.90
51739;DHT22;37815;52.692;6.226;2023-01-25T01:13:58;5.80;99.90
51739;DHT22;37815;52.692;6.226;2023-01-25T01:19:18;5.80;99.90
51739;DHT22;37815;52.692;6.226;2023-01-25T01:24:38;5.80;99.90
51739;DHT22;37815;52.692;6.226;2023-01-25T01:29:57;5.90;99.90
51739;DHT22;37815;52.692;6.226;2023-01-25T01:35:16;5.80;99.90
51739;DHT22;37815;52.692;6.226;2023-01-25T01:40:35;5.80;99.90
51739;DHT22;37815;52.692;6.226;2023-01-25T01:45:56;5.80;99.90
51739;DHT22;37815;52.692;6.226;2023-01-25T01:56:49;5.80;99.90
51739;DHT22;37815;52.692;6.226;2023-01-25T02:02:09;6.10;99.90
51739;DHT22;37815;52.692;6.226;2023-01-25T02:07:35;5.80;99.90
51739;DHT22;37815;52.692;6.226;2023-01-25T02:12:56;5.80;99.90
51739;DHT22;37815;52.692;6.226;2023-01-25T02:18:17;5.80;99.90
51739;DHT22;37815;52.692;6.226;2023-01-25T02:24:00;5.80;99.90
51739;DHT22;37815;52.692;6.226;2023-01-25T02:29:25;6.00;99.90
51739;DHT22;37815;52.692;6.226;2023-01-25T02:34:44;5.80;99.90
51739;DHT22;37815;52.692;6.226;2023-01-25T02:40:04;5.70;99.90
51739;DHT22;37815;52.692;6.226;2023-01-25T02:45:27;5.70;99.90
51739;DHT22;37815;52.692;6.226;2023-01-25T02:50:47;5.80;99.90
51739;DHT22;37815;52.692;6.226;2023-01-25T02:56:06;5.70;99.90
51739;DHT22;37815;52.692;6.226;2023-01-25T03:01:26;5.70;99.90
51739;DHT22;37815;52.692;6.226;2023-01-25T03:06:44;5.70;99.90
51739;DHT22;37815;52.692;6.226;2023-01-25T03:12:04;5.70;99.90
51739;DHT22;37815;52.692;6.226;2023-01-25T03:17:23;5.70;99.90
51739;DHT22;37815;52.692;6.226;2023-01-25T03:22:42;5.70;99.90
51739;DHT22;37815;52.692;6.226;2023-01-25T03:28:01;5.70;99.90
51739;DHT22;37815;52.692;6.226;2023-01-25T03:33:20;5.70;99.90
51739;DHT22;37815;52.692;6.226;2023-01-25T03:38:40;5.70;99.90
51739;DHT22;37815;52.692;6.226;2023-01-25T03:43:58;5.70;99.90
51739;DHT22;37815;52.692;6.226;2023-01-25T03:49:18;5.70;99.90
51739;DHT22;37815;52.692;6.226;2023-01-25T03:54:36;5.70;99.90
51739;DHT22;37815;52.692;6.226;2023-01-25T03:59:56;5.70;99.90
51739;DHT22;37815;52.692;6.226;2023-01-25T04:05:15;5.70;99.90
51739;DHT22;37815;52.692;6.226;2023-01-25T04:10:34;5.70;99.90
51739;DHT22;37815;52.692;6.226;2023-01-25T04:15:54;5.70;99.90
51739;DHT22;37815;52.692;6.226;2023-01-25T04:21:13;5.70;99.90
51739;DHT22;37815;52.692;6.226;2023-01-25T04:26:32;5.70;99.90
51739;DHT22;37815;52.692;6.226;2023-01-25T04:31:51;5.70;99.90
51739;DHT22;37815;52.692;6.226;2023-01-25T04:37:10;5.60;99.90
51739;DHT22;37815;52.692;6.226;2023-01-25T04:42:29;5.60;99.90
51739;DHT22;37815;52.692;6.226;2023-01-25T04:47:49;5.60;99.90
51739;DHT22;37815;52.692;6.226;2023-01-25T04:53:10;5.60;99.90
51739;DHT22;37815;52.692;6.226;2023-01-25T04:58:29;5.60;99.90
51739;DHT22;37815;52.692;6.226;2023-01-25T05:03:48;5.60;99.90
51739;DHT22;37815;52.692;6.226;2023-01-25T05:09:08;5.60;99.90
51739;DHT22;37815;52.692;6.226;2023-01-25T05:14:28;5.60;99.90
51739;DHT22;37815;52.692;6.226;2023-01-25T05:19:47;5.60;99.90
51739;DHT22;37815;52.692;6.226;2023-01-25T05:25:07;5.60;99.90
51739;DHT22;37815;52.692;6.226;2023-01-25T05:30:46;5.60;99.90
51739;DHT22;37815;52.692;6.226;2023-01-25T05:36:05;5.60;99.90
51739;DHT22;37815;52.692;6.226;2023-01-25T05:41:24;5.60;99.90
51739;DHT22;37815;52.692;6.226;2023-01-25T05:46:44;5.60;99.90
51739;DHT22;37815;52.692;6.226;2023-01-25T05:52:03;5.60;99.90
51739;DHT22;37815;52.692;6.226;2023-01-25T05:57:22;5.60;99.90
51739;DHT22;37815;52.692;6.226;2023-01-25T06:02:41;5.60;99.90
51739;DHT22;37815;52.692;6.226;2023-01-25T06:08:00;5.60;99.90
51739;DHT22;37815;52.692;6.226;2023-01-25T06:13:20;5.60;99.90
51739;DHT22;37815;52.692;6.226;2023-01-25T06:18:40;5.60;99.90
51739;DHT22;37815;52.692;6.226;2023-01-25T06:23:59;5.60;99.90
51739;DHT22;37815;52.692;6.226;2023-01-25T06:29:18;5.60;99.90
51739;DHT22;37815;52.692;6.226;2023-01-25T06:34:38;5.50;99.90
51739;DHT22;37815;52.692;6.226;2023-01-25T06:39:57;5.50;99.90
51739;DHT22;37815;52.692;6.226;2023-01-25T06:45:16;5.50;99.90
51739;DHT22;37815;52.692;6.226;2023-01-25T06:50:35;5.50;99.90
51739;DHT22;37815;52.692;6.226;2023-01-25T06:56:02;5.50;99.90
51739;DHT22;37815;52.692;6.226;2023-01-25T07:01:23;5.50;99.90
51739;DHT22;37815;52.692;6.226;2023-01-25T07:06:45;5.50;99.90
51739;DHT22;37815;52.692;6.226;2023-01-25T07:12:04;5.50;99.90
51739;DHT22;37815;52.692;6.226;2023-01-25T07:17:23;5.50;99.90
51739;DHT22;37815;52.692;6.226;2023-01-25T07:22:43;5.50;99.90
51739;DHT22;37815;52.692;6.226;2023-01-25T07:28:02;5.50;99.90
51739;DHT22;37815;52.692;6.226;2023-01-25T07:33:21;5.50;99.90
51739;DHT22;37815;52.692;6.226;2023-01-25T07:38:41;5.50;99.90
51739;DHT22;37815;52.692;6.226;2023-01-25T07:44:00;5.50;99.90
51739;DHT22;37815;52.692;6.226;2023-01-25T07:49:19;5.50;99.90
51739;DHT22;37815;52.692;6.226;2023-01-25T07:54:38;5.50;99.90
51739;DHT22;37815;52.692;6.226;2023-01-25T07:59:57;5.50;99.90
51739;DHT22;37815;52.692;6.226;2023-01-25T08:05:16;5.50;99.90
51739;DHT22;37815;52.692;6.226;2023-01-25T08:10:37;5.40;99.90
51739;DHT22;37815;52.692;6.226;2023-01-25T08:15:56;5.80;99.90
51739;DHT22;37815;52.692;6.226;2023-01-25T08:21:15;5.40;99.90
51739;DHT22;37815;52.692;6.226;2023-01-25T08:26:35;5.80;99.90
51739;DHT22;37815;52.692;6.226;2023-01-25T08:31:54;5.40;99.90
51739;DHT22;37815;52.692;6.226;2023-01-25T08:37:13;5.40;99.90
51739;DHT22;37815;52.692;6.226;2023-01-25T08:42:33;6.00;99.90
51739;DHT22;37815;52.692;6.226;2023-01-25T08:47:52;6.90;99.90
51739;DHT22;37815;52.692;6.226;2023-01-25T08:53:11;5.50;99.90
51739;DHT22;37815;52.692;6.226;2023-01-25T08:58:31;5.60;99.90
51739;DHT22;37815;52.692;6.226;2023-01-25T09:03:50;5.70;99.90
51739;DHT22;37815;52.692;6.226;2023-01-25T09:09:11;5.50;99.90
51739;DHT22;37815;52.692;6.226;2023-01-25T09:14:31;5.50;99.90
51739;DHT22;37815;52.692;6.226;2023-01-25T09:19:50;5.40;99.90
51739;DHT22;37815;52.692;6.226;2023-01-25T09:25:09;5.50;99.90
51739;DHT22;37815;52.692;6.226;2023-01-25T09:30:28;5.60;99.90
51739;DHT22;37815;52.692;6.226;2023-01-25T09:35:47;5.70;99.90
51739;DHT22;37815;52.692;6.226;2023-01-25T09:41:20;5.80;99.90
51739;DHT22;37815;52.692;6.226;2023-01-25T09:46:55;5.80;99.90
51739;DHT22;37815;52.692;6.226;2023-01-25T09:58:27;5.80;99.90
51739;DHT22;37815;52.692;6.226;2023-01-25T10:14:19;5.80;99.90
51739;DHT22;37815;52.692;6.226;2023-01-25T10:19:45;5.80;99.90
51739;DHT22;37815;52.692;6.226;2023-01-25T10:25:10;5.70;99.90
51739;DHT22;37815;52.692;6.226;2023-01-25T10:30:40;5.70;99.90
51739;DHT22;37815;52.692;6.226;2023-01-25T10:35:47;5.70;99.90
51739;DHT22;37815;52.692;6.226;2023-01-25T10:41:38;5.70;99.90
51739;DHT22;37815;52.692;6.226;2023-01-25T10:46:22;5.70;99.90
51739;DHT22;37815;52.692;6.226;2023-01-25T10:51:32;5.80;99.90
51739;DHT22;37815;52.692;6.226;2023-01-25T10:56:38;5.70;99.90
51739;DHT22;37815;52.692;6.226;2023-01-25T11:01:39;5.70;99.90
51739;DHT22;37815;52.692;6.226;2023-01-25T11:06:47;5.80;99.90
51739;DHT22;37815;52.692;6.226;2023-01-25T11:11:57;5.80;99.90
51739;DHT22;37815;52.692;6.226;2023-01-25T11:17:00;5.80;99.90
51739;DHT22;37815;52.692;6.226;2023-01-25T11:22:24;5.80;99.90
51739;DHT22;37815;52.692;6.226;2023-01-25T11:27:26;5.70;99.90
51739;DHT22;37815;52.692;6.226;2023-01-25T11:32:26;5.70;99.90
51739;DHT22;37815;52.692;6.226;2023-01-25T11:37:34;5.70;99.90
51739;DHT22;37815;52.692;6.226;2023-01-25T12:09:55;5.60;99.90
51739;DHT22;37815;52.692;6.226;2023-01-25T12:20:22;5.60;99.90
51739;DHT22;37815;52.692;6.226;2023-01-25T12:31:17;5.60;99.90
51739;DHT22;37815;52.692;6.226;2023-01-25T12:36:35;5.60;99.90
51739;DHT22;37815;52.692;6.226;2023-01-25T12:57:35;5.50;99.90
51739;DHT22;37815;52.692;6.226;2023-01-25T13:08:01;5.50;99.90
51739;DHT22;37815;52.692;6.226;2023-01-25T13:13:21;5.50;99.90
51739;DHT22;37815;52.692;6.226;2023-01-25T13:28:43;5.40;99.90
51739;DHT22;37815;52.692;6.226;2023-01-25T13:33:45;5.40;99.90
51739;DHT22;37815;52.692;6.226;2023-01-25T13:38:46;5.40;99.90
51739;DHT22;37815;52.692;6.226;2023-01-25T13:43:52;5.40;99.90
51739;DHT22;37815;52.692;6.226;2023-01-25T13:49:00;5.40;99.90
51739;DHT22;37815;52.692;6.226;2023-01-25T13:54:02;5.40;99.90
51739;DHT22;37815;52.692;6.226;2023-01-25T13:59:03;5.40;99.90
51739;DHT22;37815;52.692;6.226;2023-01-25T14:04:04;5.40;99.90
51739;DHT22;37815;52.692;6.226;2023-01-25T14:09:18;5.40;99.90
51739;DHT22;37815;52.692;6.226;2023-01-25T14:19:27;5.30;99.90
51739;DHT22;37815;52.692;6.226;2023-01-25T14:24:29;5.40;99.90
51739;DHT22;37815;52.692;6.226;2023-01-25T14:29:32;5.40;99.90
51739;DHT22;37815;52.692;6.226;2023-01-25T14:34:34;5.30;99.90
51739;DHT22;37815;52.692;6.226;2023-01-25T14:39:35;5.40;99.90
51739;DHT22;37815;52.692;6.226;2023-01-25T14:44:35;5.30;99.90
51739;DHT22;37815;52.692;6.226;2023-01-25T14:49:36;5.60;99.90
51739;DHT22;37815;52.692;6.226;2023-01-25T14:54:55;5.80;99.90
51739;DHT22;37815;52.692;6.226;2023-01-25T14:59:57;5.30;99.90
51739;DHT22;37815;52.692;6.226;2023-01-25T15:05:01;5.30;99.90
51739;DHT22;37815;52.692;6.226;2023-01-25T15:10:18;5.30;99.90
51739;DHT22;37815;52.692;6.226;2023-01-25T15:15:20;5.00;99.90
51739;DHT22;37815;52.692;6.226;2023-01-25T15:20:25;5.30;99.90
51739;DHT22;37815;52.692;6.226;2023-01-25T15:25:26;5.30;99.90
51739;DHT22;37815;52.692;6.226;2023-01-25T15:30:27;5.50;99.90
51739;DHT22;37815;52.692;6.226;2023-01-25T15:35:27;5.30;99.90
51739;DHT22;37815;52.692;6.226;2023-01-25T15:40:28;5.20;99.90
51739;DHT22;37815;52.692;6.226;2023-01-25T15:45:28;6.00;99.90
51739;DHT22;37815;52.692;6.226;2023-01-25T15:50:29;6.70;99.90
51739;DHT22;37815;52.692;6.226;2023-01-25T15:55:30;5.20;99.90
51739;DHT22;37815;52.692;6.226;2023-01-25T16:00:31;5.20;99.90
51739;DHT22;37815;52.692;6.226;2023-01-25T16:05:32;5.20;99.90
51739;DHT22;37815;52.692;6.226;2023-01-25T16:10:33;5.20;99.90
51739;DHT22;37815;52.692;6.226;2023-01-25T16:15:35;6.20;99.90
51739;DHT22;37815;52.692;6.226;2023-01-25T16:20:36;5.20;99.90
51739;DHT22;37815;52.692;6.226;2023-01-25T16:25:38;5.20;99.90
51739;DHT22;37815;52.692;6.226;2023-01-25T16:30:39;5.20;99.90
51739;DHT22;37815;52.692;6.226;2023-01-25T16:35:43;5.20;99.90
51739;DHT22;37815;52.692;6.226;2023-01-25T16:40:45;5.20;99.90
51739;DHT22;37815;52.692;6.226;2023-01-25T16:45:45;5.20;99.90
51739;DHT22;37815;52.692;6.226;2023-01-25T16:50:49;5.10;99.90
51739;DHT22;37815;52.692;6.226;2023-01-25T16:55:49;5.10;99.90
51739;DHT22;37815;52.692;6.226;2023-01-25T17:00:50;5.10;99.90
51739;DHT22;37815;52.692;6.226;2023-01-25T17:05:51;5.00;99.90
51739;DHT22;37815;52.692;6.226;2023-01-25T17:10:52;5.00;99.90
51739;DHT22;37815;52.692;6.226;2023-01-25T17:15:56;5.00;99.90
51739;DHT22;37815;52.692;6.226;2023-01-25T17:21:03;5.00;99.90
51739;DHT22;37815;52.692;6.226;2023-01-25T17:26:07;6.00;99.90
51739;DHT22;37815;52.692;6.226;2023-01-25T17:31:20;5.00;99.90
51739;DHT22;37815;52.692;6.226;2023-01-25T17:36:21;5.00;99.90
51739;DHT22;37815;52.692;6.226;2023-01-25T17:41:22;5.00;99.90
51739;DHT22;37815;52.692;6.226;2023-01-25T17:46:25;5.10;99.90
51739;DHT22;37815;52.692;6.226;2023-01-25T17:51:27;5.40;99.90
51739;DHT22;37815;52.692;6.226;2023-01-25T17:56:28;5.10;99.90
51739;DHT22;37815;52.692;6.226;2023-01-25T18:01:29;5.70;99.90
51739;DHT22;37815;52.692;6.226;2023-01-25T18:06:31;5.50;99.90
51739;DHT22;37815;52.692;6.226;2023-01-25T18:11:33;6.50;99.90
51739;DHT22;37815;52.692;6.226;2023-01-25T18:16:35;5.10;99.90
51739;DHT22;37815;52.692;6.226;2023-01-25T18:21:37;5.20;99.90
51739;DHT22;37815;52.692;6.226;2023-01-25T18:26:37;5.20;99.90
51739;DHT22;37815;52.692;6.226;2023-01-25T18:31:38;5.50;99.90
51739;DHT22;37815;52.692;6.226;2023-01-25T18:36:39;5.20;99.90
51739;DHT22;37815;52.692;6.226;2023-01-25T18:41:39;5.10;99.90
51739;DHT22;37815;52.692;6.226;2023-01-25T18:46:40;6.20;99.90
51739;DHT22;37815;52.692;6.226;2023-01-25T18:51:43;5.30;99.90
51739;DHT22;37815;52.692;6.226;2023-01-25T18:56:44;5.10;99.90
51739;DHT22;37815;52.692;6.226;2023-01-25T19:01:45;5.40;99.90
51739;DHT22;37815;52.692;6.226;2023-01-25T19:06:46;5.00;99.90
51739;DHT22;37815;52.692;6.226;2023-01-25T19:11:47;5.10;99.90
51739;DHT22;37815;52.692;6.226;2023-01-25T19:16:47;5.00;99.90
51739;DHT22;37815;52.692;6.226;2023-01-25T19:21:48;5.50;99.90
51739;DHT22;37815;52.692;6.226;2023-01-25T19:26:49;5.00;99.90
51739;DHT22;37815;52.692;6.226;2023-01-25T19:31:50;5.00;99.90
51739;DHT22;37815;52.692;6.226;2023-01-25T19:36:50;5.00;99.90
51739;DHT22;37815;52.692;6.226;2023-01-25T19:41:53;5.00;99.90
51739;DHT22;37815;52.692;6.226;2023-01-25T19:46:54;5.00;99.90
51739;DHT22;37815;52.692;6.226;2023-01-25T19:51:54;4.90;99.90
51739;DHT22;37815;52.692;6.226;2023-01-25T19:56:55;5.00;99.90
51739;DHT22;37815;52.692;6.226;2023-01-25T20:01:57;4.90;99.90
51739;DHT22;37815;52.692;6.226;2023-01-25T20:06:58;4.90;99.90
51739;DHT22;37815;52.692;6.226;2023-01-25T20:11:58;4.90;99.90
51739;DHT22;37815;52.692;6.226;2023-01-25T20:17:02;4.90;99.90
51739;DHT22;37815;52.692;6.226;2023-01-25T20:22:03;4.90;99.90
51739;DHT22;37815;52.692;6.226;2023-01-25T20:27:03;4.10;99.90
51739;DHT22;37815;52.692;6.226;2023-01-25T20:32:04;4.90;99.90
51739;DHT22;37815;52.692;6.226;2023-01-25T20:37:05;4.90;99.90
51739;DHT22;37815;52.692;6.226;2023-01-25T20:42:05;4.90;99.90
51739;DHT22;37815;52.692;6.226;2023-01-25T20:47:06;4.90;99.90
51739;DHT22;37815;52.692;6.226;2023-01-25T20:52:06;4.80;99.90
51739;DHT22;37815;52.692;6.226;2023-01-25T20:57:12;4.90;99.90
51739;DHT22;37815;52.692;6.226;2023-01-25T21:02:12;4.80;99.90
51739;DHT22;37815;52.692;6.226;2023-01-25T21:07:13;4.80;99.90
51739;DHT22;37815;52.692;6.226;2023-01-25T21:12:13;4.80;99.90
51739;DHT22;37815;52.692;6.226;2023-01-25T21:17:14;4.80;99.90
51739;DHT22;37815;52.692;6.226;2023-01-25T21:22:15;4.80;99.90
51739;DHT22;37815;52.692;6.226;2023-01-25T21:27:15;4.80;99.90
51739;DHT22;37815;52.692;6.226;2023-01-25T21:32:16;4.80;99.90
51739;DHT22;37815;52.692;6.226;2023-01-25T21:37:17;4.80;99.90
51739;DHT22;37815;52.692;6.226;2023-01-25T21:42:17;4.80;99.90
51739;DHT22;37815;52.692;6.226;2023-01-25T21:47:18;4.80;99.90
51739;DHT22;37815;52.692;6.226;2023-01-25T21:52:18;4.80;99.90
51739;DHT22;37815;52.692;6.226;2023-01-25T21:57:19;4.80;99.90
51739;DHT22;37815;52.692;6.226;2023-01-25T22:02:20;4.80;99.90
51739;DHT22;37815;52.692;6.226;2023-01-25T22:07:21;4.80;99.90
51739;DHT22;37815;52.692;6.226;2023-01-25T22:12:22;4.80;99.90
51739;DHT22;37815;52.692;6.226;2023-01-25T22:17:23;4.80;99.90
51739;DHT22;37815;52.692;6.226;2023-01-25T22:22:24;4.80;99.90
51739;DHT22;37815;52.692;6.226;2023-01-25T22:32:27;4.70;99.90
51739;DHT22;37815;52.692;6.226;2023-01-25T22:37:27;4.80;99.90
51739;DHT22;37815;52.692;6.226;2023-01-25T22:42:28;4.80;99.90
51739;DHT22;37815;52.692;6.226;2023-01-25T22:47:29;4.80;99.90
51739;DHT22;37815;52.692;6.226;2023-01-25T22:52:29;4.80;99.90
51739;DHT22;37815;52.692;6.226;2023-01-25T22:57:30;4.80;99.90
51739;DHT22;37815;52.692;6.226;2023-01-25T23:02:30;4.80;99.90
51739;DHT22;37815;52.692;6.226;2023-01-25T23:07:31;4.70;99.90
51739;DHT22;37815;52.692;6.226;2023-01-25T23:12:31;4.80;99.90
51739;DHT22;37815;52.692;6.226;2023-01-25T23:17:32;5.10;99.90
51739;DHT22;37815;52.692;6.226;2023-01-25T23:22:52;4.80;99.90
51739;DHT22;37815;52.692;6.226;2023-01-25T23:27:52;4.80;99.90
51739;DHT22;37815;52.692;6.226;2023-01-25T23:32:53;4.80;99.90
51739;DHT22;37815;52.692;6.226;2023-01-25T23:37:53;4.80;99.90
51739;DHT22;37815;52.692;6.226;2023-01-25T23:42:54;4.80;99.90
51739;DHT22;37815;52.692;6.226;2023-01-25T23:47:57;4.80;99.90
51739;DHT22;37815;52.692;6.226;2023-01-25T23:52:57;4.80;99.90
51739;DHT22;37815;52.692;6.226;2023-01-25T23:57:58;4.80;99.90
